createdAt,value
2022-11-20T00:01:11.056Z,0.48
2022-11-20T00:03:37.556Z,0.52
2022-11-20T00:06:06.400Z,0.42
2022-11-20T00:08:33.234Z,0.37
2022-11-20T00:11:24.498Z,0.36
2022-11-20T00:13:53.770Z,0.46
2022-11-20T00:16:22.684Z,0.44
2022-11-20T00:18:49.918Z,0.46
2022-11-20T00:21:24.746Z,0.51
2022-11-20T00:23:54.890Z,0.58
2022-11-20T00:26:24.499Z,0.66
2022-11-20T00:28:53.718Z,0.59
2022-11-20T00:31:24.366Z,0.61
2022-11-20T00:33:51.309Z,0.66
2022-11-20T00:36:19.908Z,0.73
2022-11-20T00:38:47.344Z,0.76
2022-11-20T00:41:17.004Z,0.72
2022-11-20T00:43:43.975Z,0.57
2022-11-20T00:46:14.932Z,0.54
2022-11-20T00:48:42.189Z,0.55
2022-11-20T00:51:09.348Z,0.61
2022-11-20T00:53:36.052Z,0.67
2022-11-20T00:56:05.221Z,0.69
2022-11-20T00:58:34.021Z,0.65
2022-11-20T01:01:12.696Z,0.63
2022-11-20T01:03:41.781Z,0.75
2022-11-20T01:06:15.676Z,0.85
2022-11-20T01:08:43.516Z,0.88
2022-11-20T01:11:19.128Z,0.97
2022-11-20T01:13:48.895Z,0.87
2022-11-20T01:16:18.988Z,0.93
2022-11-20T01:18:47.867Z,0.89
2022-11-20T01:21:20.683Z,0.86
2022-11-20T01:23:49.039Z,0.92
2022-11-20T01:26:17.948Z,0.99
2022-11-20T01:28:44.885Z,1.01
2022-11-20T01:31:16.545Z,0.97
2022-11-20T01:33:44.271Z,0.95
2022-11-20T01:36:12.005Z,0.88
2022-11-20T01:38:38.951Z,0.85
2022-11-20T01:41:06.512Z,0.97
2022-11-20T01:43:33.179Z,0.96
2022-11-20T01:46:15.086Z,0.85
2022-11-20T01:48:44.502Z,0.95
2022-11-20T01:51:21.855Z,0.99
2022-11-20T01:53:50.962Z,1.05
2022-11-20T01:56:18.471Z,1.09
2022-11-20T01:58:54.899Z,1.10
2022-11-20T02:01:22.394Z,1.10
2022-11-20T02:03:50.436Z,1.03
2022-11-20T02:06:26.349Z,0.96
2022-11-20T02:08:53.366Z,0.96
2022-11-20T02:11:20.076Z,0.95
2022-11-20T02:13:47.688Z,0.87
2022-11-20T02:16:28.001Z,0.81
2022-11-20T02:18:56.454Z,0.84
2022-11-20T02:21:48.452Z,0.83
2022-11-20T02:24:17.020Z,0.83
2022-11-20T02:26:57.089Z,0.83
2022-11-20T02:29:31.751Z,0.85
2022-11-20T02:32:01.143Z,0.88
2022-11-20T02:34:27.662Z,0.92
2022-11-20T02:36:54.303Z,0.91
2022-11-20T02:39:23.279Z,0.96
2022-11-20T02:41:49.970Z,1.00
2022-11-20T02:44:16.515Z,0.93
2022-11-20T02:46:43.041Z,0.94
2022-11-20T02:49:09.798Z,1.00
2022-11-20T02:51:36.623Z,0.99
2022-11-20T02:54:03.595Z,0.96
2022-11-20T02:56:30.266Z,0.93
2022-11-20T02:58:56.899Z,0.99
2022-11-20T03:01:23.939Z,1.04
2022-11-20T03:03:50.515Z,1.02
2022-11-20T03:06:17.706Z,1.04
2022-11-20T03:08:44.273Z,1.01
2022-11-20T03:11:11.135Z,0.99
2022-11-20T03:13:37.837Z,1.02
2022-11-20T03:16:13.103Z,0.99
2022-11-20T03:18:41.233Z,0.99
2022-11-20T03:21:09.096Z,0.98
2022-11-20T03:23:36.579Z,1.06
2022-11-20T03:26:14.464Z,1.01
2022-11-20T03:28:42.394Z,1.04
2022-11-20T03:31:16.982Z,1.01
2022-11-20T03:33:44.942Z,0.92
2022-11-20T03:36:14.132Z,0.87
2022-11-20T03:38:41.707Z,0.77
2022-11-20T03:41:15.374Z,0.64
2022-11-20T03:43:42.432Z,0.60
2022-11-20T03:46:09.447Z,0.59
2022-11-20T03:48:36.043Z,0.59
2022-11-20T03:51:14.771Z,0.48
2022-11-20T03:53:42.943Z,0.54
2022-11-20T03:56:10.987Z,0.46
2022-11-20T03:58:42.359Z,0.50
2022-11-20T04:01:20.982Z,0.43
2022-11-20T04:03:57.503Z,0.41
2022-11-20T04:06:27.236Z,0.35
2022-11-20T04:08:58.895Z,0.28
2022-11-20T04:11:33.501Z,0.32
2022-11-20T04:14:02.531Z,0.40
2022-11-20T04:16:36.960Z,0.41
2022-11-20T04:19:06.263Z,0.29
2022-11-20T04:21:33.549Z,0.28
2022-11-20T04:24:00.130Z,0.33
2022-11-20T04:26:28.893Z,0.36
2022-11-20T04:28:55.922Z,0.35
2022-11-20T04:31:27.838Z,0.42
2022-11-20T04:34:00.254Z,0.39
2022-11-20T04:36:30.387Z,0.43
2022-11-20T04:39:02.216Z,0.35
2022-11-20T04:41:32.503Z,0.32
2022-11-20T04:44:03.888Z,0.32
2022-11-20T04:46:36.734Z,0.31
2022-11-20T04:49:03.818Z,0.36
2022-11-20T04:51:30.394Z,0.39
2022-11-20T04:53:57.162Z,0.40
2022-11-20T04:56:23.909Z,0.34
2022-11-20T04:58:50.696Z,0.37
2022-11-20T05:01:20.250Z,0.31
2022-11-20T05:03:47.142Z,0.37
2022-11-20T05:06:15.918Z,0.40
2022-11-20T05:08:42.965Z,0.35
2022-11-20T05:11:15.283Z,0.40
2022-11-20T05:13:43.056Z,0.37
2022-11-20T05:16:12.586Z,0.36
2022-11-20T05:18:39.808Z,0.28
2022-11-20T05:21:07.765Z,0.20
2022-11-20T05:23:34.947Z,0.23
2022-11-20T05:26:03.541Z,0.36
2022-11-20T05:28:31.823Z,0.36
2022-11-20T05:31:15.635Z,0.40
2022-11-20T05:33:43.960Z,0.32
2022-11-20T05:36:11.790Z,0.34
2022-11-20T05:38:38.620Z,0.33
2022-11-20T05:41:11.340Z,0.28
2022-11-20T05:43:40.176Z,0.37
2022-11-20T05:46:08.623Z,0.41
2022-11-20T05:48:38.181Z,0.41
2022-11-20T05:51:07.126Z,0.44
2022-11-20T05:53:35.380Z,0.43
2022-11-20T05:56:04.348Z,0.51
2022-11-20T05:58:31.972Z,0.47
2022-11-20T06:01:22.487Z,0.53
2022-11-20T06:03:51.798Z,0.62
2022-11-20T06:06:20.427Z,0.71
2022-11-20T06:08:47.582Z,0.66
2022-11-20T06:11:15.575Z,0.65
2022-11-20T06:13:43.070Z,0.62
2022-11-20T06:16:11.419Z,0.62
2022-11-20T06:18:38.578Z,0.71
2022-11-20T06:21:06.968Z,0.66
2022-11-20T06:23:35.391Z,0.78
2022-11-20T06:26:04.642Z,0.78
2022-11-20T06:28:31.637Z,0.73
2022-11-20T06:30:58.823Z,0.65
2022-11-20T06:33:25.710Z,0.73
2022-11-20T06:35:58.492Z,0.78
2022-11-20T06:38:27.427Z,0.77
2022-11-20T06:40:54.358Z,0.84
2022-11-20T06:43:21.277Z,0.86
2022-11-20T06:45:53.084Z,0.89
2022-11-20T06:48:19.683Z,0.86
2022-11-20T06:50:46.392Z,0.85
2022-11-20T06:53:12.983Z,0.83
2022-11-20T06:55:44.628Z,0.90
2022-11-20T06:58:11.914Z,0.92
2022-11-20T07:00:38.923Z,0.98
2022-11-20T07:03:06.342Z,0.95
2022-11-20T07:05:33.984Z,1.00
2022-11-20T07:08:00.843Z,1.00
2022-11-20T07:10:27.562Z,0.99
2022-11-20T07:12:54.666Z,1.05
2022-11-20T07:15:23.485Z,1.02
2022-11-20T07:17:50.161Z,1.05
2022-11-20T07:20:16.890Z,1.10
2022-11-20T07:22:44.111Z,1.05
2022-11-20T07:25:11.169Z,1.10
2022-11-20T07:27:37.882Z,1.07
2022-11-20T07:30:05.372Z,1.15
2022-11-20T07:32:32.058Z,1.13
2022-11-20T07:34:58.613Z,1.19
2022-11-20T07:37:25.397Z,1.23
2022-11-20T07:39:52.030Z,1.23
2022-11-20T07:42:18.635Z,1.24
2022-11-20T07:44:45.430Z,1.30
2022-11-20T07:47:12.244Z,1.24
2022-11-20T07:49:38.958Z,1.25
2022-11-20T07:52:05.759Z,1.32
2022-11-20T07:54:32.624Z,1.25
2022-11-20T07:57:02.754Z,1.28
2022-11-20T07:59:31.859Z,1.29
2022-11-20T08:01:59.949Z,1.41
2022-11-20T08:04:26.887Z,1.45
2022-11-20T08:06:53.801Z,1.45
2022-11-20T08:09:20.682Z,1.50
2022-11-20T08:12:06.229Z,1.51
2022-11-20T08:14:33.102Z,1.57
2022-11-20T08:17:00.660Z,1.55
2022-11-20T08:19:27.465Z,1.62
2022-11-20T08:21:54.505Z,1.61
2022-11-20T08:24:21.274Z,1.63
2022-11-20T08:26:47.941Z,1.60
2022-11-20T08:29:14.694Z,1.60
2022-11-20T08:31:43.045Z,1.64
2022-11-20T08:34:11.313Z,1.66
2022-11-20T08:36:39.721Z,1.54
2022-11-20T08:39:06.417Z,1.62
2022-11-20T08:41:34.134Z,1.68
2022-11-20T08:44:02.981Z,1.70
2022-11-20T08:46:38.405Z,1.64
2022-11-20T08:49:07.110Z,1.61
2022-11-20T08:51:34.148Z,1.69
2022-11-20T08:54:00.824Z,1.66
2022-11-20T08:56:27.659Z,1.73
2022-11-20T09:01:41.022Z,1.84
2022-11-20T09:04:08.068Z,1.83
2022-11-20T09:06:34.689Z,1.88
2022-11-20T09:09:06.359Z,1.81
2022-11-20T09:11:33.831Z,1.80
2022-11-20T09:14:01.162Z,1.83
2022-11-20T09:16:27.912Z,1.86
2022-11-20T09:19:20.223Z,1.81
2022-11-20T09:21:41.536Z,1.84
2022-11-20T09:24:08.504Z,1.92
2022-11-20T09:26:35.220Z,1.93
2022-11-20T09:29:01.941Z,1.89
2022-11-20T09:31:28.693Z,1.92
2022-11-20T09:33:55.987Z,1.91
2022-11-20T09:36:27.521Z,1.94
2022-11-20T09:38:55.062Z,1.90
2022-11-20T09:41:40.800Z,1.89
2022-11-20T09:44:29.452Z,1.85
2022-11-20T09:47:09.980Z,1.85
2022-11-20T09:50:05.290Z,1.85
2022-11-20T09:53:06.948Z,1.90
2022-11-20T09:55:42.805Z,1.98
2022-11-20T09:58:45.006Z,1.99
2022-11-20T10:01:24.511Z,1.99
2022-11-20T10:04:07.265Z,2.05
2022-11-20T10:06:42.760Z,2.12
2022-11-20T10:09:12.109Z,2.18
2022-11-20T10:11:52.922Z,2.14
2022-11-20T10:14:26.329Z,2.18
2022-11-20T10:17:20.735Z,2.19
2022-11-20T10:19:53.919Z,2.19
2022-11-20T10:22:45.250Z,2.13
2022-11-20T10:25:25.505Z,2.27
2022-11-20T10:28:24.834Z,2.27
2022-11-20T10:31:00.860Z,2.27
2022-11-20T10:33:49.947Z,2.35
2022-11-20T10:36:27.329Z,2.26
2022-11-20T10:39:12.909Z,2.25
2022-11-20T10:41:42.960Z,2.36
2022-11-20T10:44:36.850Z,2.46
2022-11-20T10:47:11.482Z,2.40
2022-11-20T10:49:45.868Z,2.35
2022-11-20T10:52:18.753Z,2.38
2022-11-20T10:55:21.182Z,2.38
2022-11-20T10:58:11.105Z,2.42
2022-11-20T11:00:40.517Z,2.37
2022-11-20T11:03:37.367Z,2.40
2022-11-20T11:06:41.165Z,2.30
2022-11-20T11:09:28.692Z,2.29
2022-11-20T11:11:55.643Z,2.32
2022-11-20T11:14:25.598Z,2.36
2022-11-20T11:16:54.796Z,2.38
2022-11-20T11:19:22.166Z,2.44
2022-11-20T11:21:55.959Z,2.65
2022-11-20T11:24:46.243Z,2.81
2022-11-20T11:27:21.137Z,2.88
2022-11-20T11:29:50.227Z,3.03
2022-11-20T11:32:22.814Z,3.12
2022-11-20T11:35:07.494Z,3.26
2022-11-20T11:37:40.001Z,3.44
2022-11-20T11:40:30.337Z,3.44
2022-11-20T11:43:03.828Z,3.38
2022-11-20T11:45:30.814Z,3.30
2022-11-20T11:48:04.178Z,3.23
2022-11-20T11:50:34.366Z,3.29
2022-11-20T11:53:14.365Z,3.40
2022-11-20T11:55:53.190Z,3.52
2022-11-20T11:58:30.666Z,3.67
2022-11-20T12:01:16.092Z,3.92
2022-11-20T12:04:02.697Z,3.99
2022-11-20T12:06:32.551Z,3.93
2022-11-20T12:09:11.785Z,3.82
2022-11-20T12:12:02.594Z,3.71
2022-11-20T12:14:36.679Z,3.70
2022-11-20T12:17:04.353Z,3.73
2022-11-20T12:19:35.373Z,3.58
2022-11-20T12:22:38.896Z,3.65
2022-11-20T12:25:34.269Z,3.50
2022-11-20T12:28:03.822Z,3.54
2022-11-20T12:30:37.411Z,3.63
2022-11-20T12:33:17.028Z,3.64
2022-11-20T12:35:58.839Z,3.54
2022-11-20T12:38:44.400Z,3.59
2022-11-20T12:42:07.347Z,3.63
2022-11-20T12:45:10.644Z,3.67
2022-11-20T12:48:06.221Z,3.75
2022-11-20T12:53:57.122Z,3.76
2022-11-20T12:56:35.737Z,3.76
2022-11-20T12:59:24.934Z,3.70
2022-11-20T13:02:23.489Z,3.72
2022-11-20T13:05:20.597Z,3.69
2022-11-20T13:07:56.296Z,3.71
2022-11-20T13:10:40.722Z,3.66
2022-11-20T13:13:29.421Z,3.61
2022-11-20T13:16:14.992Z,3.49
2022-11-20T13:18:46.424Z,3.58
2022-11-20T13:21:22.113Z,3.61
2022-11-20T13:23:49.116Z,3.58
2022-11-20T13:26:24.460Z,3.59
2022-11-20T13:29:12.297Z,3.58
2022-11-20T13:31:44.945Z,3.59
2022-11-20T13:34:39.884Z,3.62
2022-11-20T13:37:07.002Z,3.56
2022-11-20T13:39:38.999Z,3.45
2022-11-20T13:42:22.594Z,3.44
2022-11-20T13:44:54.761Z,3.42
2022-11-20T13:47:29.236Z,3.45
2022-11-20T13:50:07.328Z,3.44
2022-11-20T13:53:01.307Z,3.39
2022-11-20T13:55:46.619Z,3.34
2022-11-20T13:58:51.165Z,3.29
2022-11-20T14:01:22.903Z,3.30
2022-11-20T14:04:09.893Z,3.29
2022-11-20T14:06:47.855Z,3.13
2022-11-20T14:09:33.787Z,3.11
2022-11-20T14:12:01.420Z,3.20
2022-11-20T14:14:31.603Z,3.22
2022-11-20T14:17:26.788Z,3.20
2022-11-20T14:19:55.153Z,3.23
2022-11-20T14:22:24.615Z,3.22
2022-11-20T14:25:16.776Z,3.24
2022-11-20T14:27:57.185Z,3.27
2022-11-20T14:30:30.160Z,3.33
2022-11-20T14:33:02.409Z,3.34
2022-11-20T14:35:35.221Z,3.41
2022-11-20T14:38:03.687Z,3.38
2022-11-20T14:40:39.351Z,3.27
2022-11-20T14:43:24.748Z,3.28
2022-11-20T14:46:06.567Z,3.27
2022-11-20T14:53:20.444Z,3.37
2022-11-20T14:56:03.349Z,3.41
2022-11-20T14:58:55.525Z,3.40
2022-11-20T15:39:54.801Z,3.21
2022-11-20T16:51:51.961Z,3.37
2022-11-20T16:54:27.255Z,3.38
2022-11-20T16:57:03.447Z,3.28
2022-11-20T16:59:46.258Z,3.19
2022-11-20T17:02:29.088Z,3.23
2022-11-20T17:05:19.574Z,3.31
2022-11-20T17:08:04.038Z,3.23
2022-11-20T17:11:23.678Z,3.21
2022-11-20T17:14:51.465Z,3.16
2022-11-20T17:17:17.818Z,3.09
2022-11-20T17:32:36.133Z,2.66
2022-11-20T17:35:10.301Z,2.62
2022-11-20T17:57:45.444Z,2.35
2022-11-20T18:00:15.217Z,2.34
2022-11-20T18:02:56.691Z,2.34
2022-11-20T18:05:29.510Z,2.33
2022-11-20T18:07:56.973Z,2.29
2022-11-20T18:10:26.242Z,2.36
2022-11-20T18:13:02.363Z,2.37
2022-11-20T18:15:37.993Z,2.41
2022-11-20T18:18:06.031Z,2.42
2022-11-20T18:20:39.758Z,2.30
2022-11-20T18:23:10.181Z,2.26
2022-11-20T18:25:37.307Z,2.22
2022-11-20T18:28:04.572Z,2.22
2022-11-20T18:30:31.632Z,2.23
2022-11-20T18:32:59.747Z,2.27
2022-11-20T18:35:27.868Z,2.36
2022-11-20T18:37:55.430Z,2.32
2022-11-20T18:40:38.435Z,2.28
2022-11-20T18:43:28.018Z,2.40
2022-11-20T18:46:03.165Z,2.39
2022-11-20T18:55:16.433Z,2.48
2022-11-20T18:58:48.052Z,2.51
2022-11-20T19:15:03.873Z,2.58
2022-11-20T19:17:33.737Z,2.60
2022-11-20T19:20:01.213Z,2.59
2022-11-20T19:22:28.259Z,2.56
2022-11-20T19:25:01.851Z,2.55
2022-11-20T19:27:42.908Z,2.54
2022-11-20T19:30:32.964Z,2.58
2022-11-20T19:33:02.353Z,2.58
2022-11-20T19:35:36.778Z,2.61
2022-11-20T19:38:12.820Z,2.65
2022-11-20T19:40:42.251Z,2.73
2022-11-20T19:43:12.666Z,2.75
2022-11-20T19:45:42.692Z,2.86
2022-11-20T19:48:12.387Z,2.95
2022-11-20T19:50:41.304Z,2.92
2022-11-20T19:53:08.869Z,2.98
2022-11-20T19:55:35.886Z,3.00
2022-11-20T19:58:05.946Z,3.08
2022-11-20T20:00:33.200Z,3.10
2022-11-20T20:03:00.632Z,3.14
2022-11-20T20:05:27.882Z,3.14
2022-11-20T20:07:55.042Z,3.14
2022-11-20T20:10:25.077Z,3.20
2022-11-20T20:12:55.863Z,3.23
2022-11-20T20:15:22.960Z,3.30
2022-11-20T20:17:54.852Z,3.29
2022-11-20T20:20:22.045Z,3.31
2022-11-20T20:22:49.234Z,3.39
2022-11-20T20:25:16.444Z,3.50
2022-11-20T20:27:43.594Z,3.44
2022-11-20T20:30:12.294Z,3.46
2022-11-20T20:32:39.290Z,3.49
2022-11-20T20:35:09.736Z,3.38
2022-11-20T20:37:36.759Z,3.42
2022-11-20T20:40:03.840Z,3.46
2022-11-20T20:42:32.341Z,3.47
2022-11-20T20:45:08.307Z,3.57
2022-11-20T20:47:37.546Z,3.57
2022-11-20T20:57:10.247Z,3.70
2022-11-20T20:59:39.992Z,3.76
2022-11-20T21:02:07.295Z,3.77
2022-11-20T21:04:37.025Z,3.75
2022-11-20T21:07:03.891Z,3.76
2022-11-20T21:09:39.344Z,3.82
2022-11-20T21:12:06.218Z,3.86
2022-11-20T21:14:32.956Z,3.81
2022-11-20T21:16:59.759Z,3.91
2022-11-20T21:19:28.935Z,3.93
2022-11-20T21:22:03.019Z,3.95
2022-11-20T21:24:35.967Z,3.97
2022-11-20T21:27:05.513Z,3.99
2022-11-20T21:29:32.320Z,4.05
2022-11-20T21:32:01.798Z,4.03
2022-11-20T21:34:29.034Z,4.01
2022-11-20T21:36:55.951Z,4.05
2022-11-20T21:39:23.124Z,4.08
2022-11-20T21:41:49.942Z,4.02
2022-11-20T21:44:30.870Z,4.04
2022-11-20T21:47:04.144Z,4.09
2022-11-20T21:49:30.915Z,4.03
2022-11-20T21:51:57.773Z,4.02
2022-11-20T21:54:24.689Z,4.05
2022-11-20T21:57:06.362Z,3.97
2022-11-20T21:59:36.346Z,4.05
2022-11-20T22:02:12.042Z,4.07
2022-11-20T22:04:41.762Z,4.04
2022-11-20T22:07:08.593Z,3.99
2022-11-20T22:09:35.316Z,4.03
2022-11-20T22:12:02.091Z,4.07
2022-11-20T22:14:31.450Z,4.08
2022-11-20T22:16:58.096Z,4.10
2022-11-20T22:19:24.887Z,4.10
2022-11-20T22:21:51.475Z,4.08
2022-11-20T22:24:19.863Z,4.06
2022-11-20T22:26:46.955Z,4.06
2022-11-20T22:29:18.675Z,4.07
2022-11-20T22:31:45.585Z,4.10
2022-11-20T22:34:16.242Z,4.07
2022-11-20T22:37:02.907Z,4.07
2022-11-20T22:39:29.521Z,4.09
2022-11-20T22:41:56.062Z,4.14
2022-11-20T22:44:22.992Z,4.12
2022-11-20T22:46:49.770Z,4.06
2022-11-20T22:49:20.063Z,4.05
2022-11-20T22:51:46.911Z,4.05
2022-11-20T22:54:13.681Z,4.07
2022-11-20T22:56:41.596Z,4.06
2022-11-20T22:59:08.950Z,4.09
2022-11-20T23:01:39.516Z,4.10
2022-11-20T23:04:11.304Z,4.13
2022-11-20T23:06:38.060Z,4.11
2022-11-20T23:09:06.224Z,4.08
2022-11-20T23:11:33.679Z,4.09
2022-11-20T23:14:06.024Z,4.07
2022-11-20T23:16:34.092Z,4.07
2022-11-20T23:19:03.736Z,4.08
2022-11-20T23:21:30.436Z,4.11
2022-11-20T23:23:58.332Z,4.11
2022-11-20T23:26:29.135Z,4.14
2022-11-20T23:28:58.848Z,4.12
2022-11-20T23:31:27.880Z,4.11
2022-11-20T23:33:55.050Z,4.14
2022-11-20T23:36:21.929Z,4.15
2022-11-20T23:38:48.521Z,4.15
2022-11-20T23:41:15.551Z,4.14
2022-11-20T23:43:42.295Z,4.14
2022-11-20T23:46:13.719Z,4.14
2022-11-20T23:48:43.198Z,4.09
2022-11-20T23:51:10.102Z,4.02
2022-11-20T23:53:36.751Z,4.03
2022-11-20T23:56:05.253Z,4.00
2022-11-20T23:58:37.318Z,3.99
